Time,TemperatureF,DewpointF,PressureIn,WindDirection,WindDirectionDegrees,WindSpeedMPH,WindSpeedGustMPH,Humidity,HourlyPrecipIn,Conditions,Clouds,dailyrainin,SoftwareType,DateUTC
2013-01-15 00:00:00,61.1,59.4,30.13,SSE,157,0.0,0.0,94,0.00,,,0.00,Wunderground v.1.15,2013-01-15 05:00:00,
2013-01-15 00:05:00,61.1,59.4,30.13,SSE,157,0.0,0.0,94,0.00,,,0.00,Wunderground v.1.15,2013-01-15 05:05:00,
2013-01-15 00:10:00,60.9,59.2,30.13,SSE,157,0.0,0.0,94,0.00,,,0.00,Wunderground v.1.15,2013-01-15 05:10:00,
2013-01-15 00:20:00,60.7,59.0,30.14,SSE,157,0.0,0.0,94,0.00,,,0.00,Wunderground v.1.15,2013-01-15 05:20:00,
2013-01-15 00:25:00,60.5,58.8,30.14,SSE,157,0.0,0.0,94,0.00,,,0.00,Wunderground v.1.15,2013-01-15 05:25:00,
2013-01-15 00:35:00,60.3,58.6,30.14,SSE,157,0.0,0.0,94,0.00,,,0.00,Wunderground v.1.15,2013-01-15 05:35:00,
2013-01-15 00:45:00,59.9,58.5,30.13,SSE,157,0.0,0.0,95,0.00,,,0.00,Wunderground v.1.15,2013-01-15 05:45:00,
2013-01-15 00:50:00,60.0,58.6,30.14,SSE,157,0.0,0.0,95,0.00,,,0.00,Wunderground v.1.15,2013-01-15 05:50:00,
2013-01-15 00:54:00,60.2,58.8,30.13,SSE,157,0.0,0.0,95,0.00,,,0.00,Wunderground v.1.15,2013-01-15 05:54:00,
2013-01-15 01:00:00,60.5,59.4,30.13,SSE,157,0.0,0.0,96,0.00,,,0.00,Wunderground v.1.15,2013-01-15 06:00:00,
2013-01-15 01:10:00,61.2,60.3,30.13,SSE,157,0.0,0.0,97,0.00,,,0.00,Wunderground v.1.15,2013-01-15 06:10:00,
2013-01-15 01:20:00,61.4,60.2,30.13,SSE,157,0.0,0.0,96,0.00,,,0.00,Wunderground v.1.15,2013-01-15 06:20:00,
2013-01-15 01:29:00,61.0,59.9,30.13,SSE,157,0.0,0.0,96,0.00,,,0.00,Wunderground v.1.15,2013-01-15 06:29:00,
2013-01-15 01:34:00,60.9,59.8,30.13,SSE,157,0.0,0.0,96,0.00,,,0.00,Wunderground v.1.15,2013-01-15 06:34:00,
2013-01-15 01:44:00,61.2,60.3,30.13,SSE,157,0.0,0.0,97,0.00,,,0.00,Wunderground v.1.15,2013-01-15 06:44:00,
2013-01-15 01:50:00,61.7,60.8,30.13,SSE,166,0.0,4.0,97,0.00,,,0.00,Wunderground v.1.15,2013-01-15 06:50:00,
2013-01-15 01:55:00,62.2,61.3,30.13,SSE,165,1.0,4.0,97,0.00,,,0.00,Wunderground v.1.15,2013-01-15 06:55:00,
2013-01-15 02:00:00,62.1,61.2,30.13,SSE,152,1.0,1.0,97,0.00,,,0.00,Wunderground v.1.15,2013-01-15 07:00:00,
2013-01-15 02:10:00,61.9,61.0,30.13,SSE,152,1.0,2.0,97,0.00,,,0.00,Wunderground v.1.15,2013-01-15 07:10:00,
2013-01-15 02:15:00,62.0,61.1,30.13,SSE,152,1.0,2.0,97,0.00,,,0.00,Wunderground v.1.15,2013-01-15 07:15:00,
2013-01-15 02:25:00,62.2,61.3,30.13,South,183,1.0,1.0,97,0.00,,,0.00,Wunderground v.1.15,2013-01-15 07:25:00,
2013-01-15 02:30:00,62.6,61.7,30.13,SSE,166,2.0,4.0,97,0.00,,,0.00,Wunderground v.1.15,2013-01-15 07:30:00,
2013-01-15 02:40:00,63.1,62.2,30.13,South,172,4.0,4.0,97,0.00,,,0.00,Wunderground v.1.15,2013-01-15 07:40:00,
2013-01-15 02:50:00,63.1,62.5,30.12,SE,144,4.0,4.0,98,0.00,,,0.00,Wunderground v.1.15,2013-01-15 07:50:00,
2013-01-15 03:00:00,62.4,61.5,30.12,SSE,156,3.0,5.0,97,0.00,,,0.00,Wunderground v.1.15,2013-01-15 08:00:00,
2013-01-15 03:05:00,62.4,61.5,30.12,South,170,4.0,5.0,97,0.00,,,0.00,Wunderground v.1.15,2013-01-15 08:05:00,
2013-01-15 03:10:00,62.6,62.0,30.12,South,180,4.0,4.0,98,0.00,,,0.00,Wunderground v.1.15,2013-01-15 08:10:00,
2013-01-15 03:20:00,62.7,62.1,30.12,South,173,4.0,4.0,98,0.00,,,0.00,Wunderground v.1.15,2013-01-15 08:20:00,
2013-01-15 03:30:00,62.8,62.2,30.11,SSE,156,4.0,5.0,98,0.00,,,0.00,Wunderground v.1.15,2013-01-15 08:30:00,
2013-01-15 03:35:00,62.8,62.2,30.11,SSE,160,4.0,5.0,98,0.00,,,0.00,Wunderground v.1.15,2013-01-15 08:35:00,
2013-01-15 03:44:00,62.8,62.2,30.11,South,172,3.0,5.0,98,0.00,,,0.00,Wunderground v.1.15,2013-01-15 08:44:00,
2013-01-15 03:50:00,62.8,62.2,30.11,South,186,4.0,4.0,98,0.00,,,0.00,Wunderground v.1.15,2013-01-15 08:50:00,
2013-01-15 03:55:00,63.0,62.4,30.11,SSE,166,4.0,4.0,98,0.00,,,0.00,Wunderground v.1.15,2013-01-15 08:55:00,
2013-01-15 04:05:00,63.0,62.4,30.10,SSE,166,4.0,4.0,98,0.00,,,0.00,Wunderground v.1.15,2013-01-15 09:05:00,
2013-01-15 04:15:00,62.8,62.2,30.10,South,173,4.0,6.0,98,0.00,,,0.00,Wunderground v.1.15,2013-01-15 09:15:00,
2013-01-15 04:20:00,62.6,62.0,30.10,SSE,148,4.0,4.0,98,0.00,,,0.00,Wunderground v.1.15,2013-01-15 09:20:00,
2013-01-15 04:25:00,62.7,62.1,30.10,SSE,167,4.0,4.0,98,0.00,,,0.00,Wunderground v.1.15,2013-01-15 09:25:00,
2013-01-15 04:35:00,62.6,62.0,30.10,SSE,166,4.0,4.0,98,0.00,,,0.00,Wunderground v.1.15,2013-01-15 09:35:00,
2013-01-15 04:45:00,62.2,61.6,30.09,South,189,4.0,5.0,98,0.00,,,0.00,Wunderground v.1.15,2013-01-15 09:45:00,
2013-01-15 04:50:00,62.1,61.5,30.09,SSE,160,4.0,5.0,98,0.00,,,0.00,Wunderground v.1.15,2013-01-15 09:50:00,
2013-01-15 05:00:00,62.4,61.5,30.09,SSE,164,5.0,5.0,97,0.00,,,0.00,Wunderground v.1.15,2013-01-15 10:00:00,
2013-01-15 05:05:00,62.5,61.6,30.09,SSE,160,5.0,6.0,97,0.00,,,0.00,Wunderground v.1.15,2013-01-15 10:05:00,
2013-01-15 05:15:00,63.1,61.6,30.09,SSE,162,6.0,7.0,95,0.00,,,0.00,Wunderground v.1.15,2013-01-15 10:15:00,
2013-01-15 05:20:00,63.3,61.5,30.09,SSE,160,6.0,6.0,94,0.00,,,0.00,Wunderground v.1.15,2013-01-15 10:20:00,
2013-01-15 05:30:00,63.5,61.4,30.08,South,175,6.0,6.0,93,0.00,,,0.00,Wunderground v.1.15,2013-01-15 10:30:00,
2013-01-15 05:35:00,63.5,61.4,30.08,South,171,6.0,6.0,93,0.00,,,0.00,Wunderground v.1.15,2013-01-15 10:35:00,
2013-01-15 05:45:00,63.7,61.6,30.08,SSE,147,6.0,7.0,93,0.00,,,0.00,Wunderground v.1.15,2013-01-15 10:45:00,
2013-01-15 05:50:00,63.8,61.4,30.09,SSE,161,6.0,7.0,92,0.00,,,0.00,Wunderground v.1.15,2013-01-15 10:50:00,
2013-01-15 06:00:00,63.9,61.5,30.09,SSE,165,7.0,7.0,92,0.00,,,0.00,Wunderground v.1.15,2013-01-15 11:00:00,
2013-01-15 06:10:00,63.4,61.0,30.09,SSE,150,6.0,6.0,92,0.00,,,0.00,Wunderground v.1.15,2013-01-15 11:10:00,
2013-01-15 06:15:00,63.1,60.7,30.09,SSE,147,4.0,6.0,92,0.00,,,0.00,Wunderground v.1.15,2013-01-15 11:15:00,
2013-01-15 06:25:00,63.1,61.0,30.09,South,173,4.0,6.0,93,0.00,,,0.00,Wunderground v.1.15,2013-01-15 11:25:00,
2013-01-15 06:30:00,63.2,61.1,30.09,SSE,153,4.0,5.0,93,0.00,,,0.00,Wunderground v.1.15,2013-01-15 11:30:00,
2013-01-15 06:35:00,63.3,61.2,30.09,SSE,162,5.0,5.0,93,0.00,,,0.00,Wunderground v.1.15,2013-01-15 11:35:00,
2013-01-15 06:45:00,62.9,60.5,30.09,SSE,147,3.0,4.0,92,0.00,,,0.00,Wunderground v.1.15,2013-01-15 11:45:00,
2013-01-15 06:50:00,62.4,60.3,30.09,SE,143,3.0,5.0,93,0.00,,,0.00,Wunderground v.1.15,2013-01-15 11:50:00,
2013-01-15 07:00:00,61.9,59.9,30.09,SSE,149,5.0,5.0,93,0.00,,,0.00,Wunderground v.1.15,2013-01-15 12:00:00,
2013-01-15 07:05:00,61.7,60.0,30.09,SSE,151,4.0,5.0,94,0.00,,,0.00,Wunderground v.1.15,2013-01-15 12:05:00,
2013-01-15 07:15:00,61.6,59.9,30.10,SE,141,3.0,3.0,94,0.00,,,0.00,Wunderground v.1.15,2013-01-15 12:15:00,
2013-01-15 07:25:00,61.4,59.7,30.10,SE,141,3.0,3.0,94,0.00,,,0.00,Wunderground v.1.15,2013-01-15 12:25:00,
2013-01-15 07:30:00,61.4,60.0,30.10,SSE,153,3.0,3.0,95,0.00,,,0.00,Wunderground v.1.15,2013-01-15 12:30:00,
2013-01-15 07:35:00,61.5,60.1,30.11,SSE,150,2.0,3.0,95,0.00,,,0.00,Wunderground v.1.15,2013-01-15 12:35:00,
2013-01-15 07:45:00,61.8,60.4,30.11,SSE,167,1.0,2.0,95,0.00,,,0.00,Wunderground v.1.15,2013-01-15 12:45:00,
2013-01-15 07:50:00,61.9,60.2,30.11,SSE,154,2.0,2.0,94,0.00,,,0.00,Wunderground v.1.15,2013-01-15 12:50:00,
2013-01-15 08:00:00,61.9,60.2,30.11,SSE,154,2.0,3.0,94,0.00,,,0.00,Wunderground v.1.15,2013-01-15 13:00:00,
2013-01-15 08:10:00,61.7,60.0,30.12,SSE,147,2.0,2.0,94,0.00,,,0.00,Wunderground v.1.15,2013-01-15 13:10:00,
2013-01-15 08:15:00,61.8,60.1,30.12,SSE,147,2.0,2.0,94,0.00,,,0.00,Wunderground v.1.15,2013-01-15 13:15:00,
2013-01-15 08:25:00,62.0,60.3,30.13,SSE,147,2.0,3.0,94,0.00,,,0.00,Wunderground v.1.15,2013-01-15 13:25:00,
2013-01-15 08:30:00,62.1,60.4,30.13,SSE,147,3.0,3.0,94,0.00,,,0.00,Wunderground v.1.15,2013-01-15 13:30:00,
2013-01-15 08:40:00,62.4,60.7,30.13,SSE,154,3.0,3.0,94,0.00,,,0.00,Wunderground v.1.15,2013-01-15 13:40:00,
2013-01-15 08:50:00,62.8,61.0,30.14,SSE,156,3.0,3.0,94,0.00,,,0.00,Wunderground v.1.15,2013-01-15 13:50:00,
2013-01-15 08:55:00,63.0,60.9,30.14,SSE,154,3.0,5.0,93,0.00,,,0.00,Wunderground v.1.15,2013-01-15 13:55:00,
2013-01-15 09:05:00,63.4,61.3,30.14,SE,143,3.0,3.0,93,0.00,,,0.00,Wunderground v.1.15,2013-01-15 14:05:00,
2013-01-15 09:10:00,63.7,61.3,30.14,SSE,155,3.0,4.0,92,0.00,,,0.00,Wunderground v.1.15,2013-01-15 14:10:00,
2013-01-15 09:20:00,64.3,61.6,30.14,SSE,152,4.0,4.0,91,0.00,,,0.00,Wunderground v.1.15,2013-01-15 14:20:00,
2013-01-15 09:29:00,64.6,61.9,30.14,SSE,149,4.0,4.0,91,0.00,,,0.00,Wunderground v.1.15,2013-01-15 14:29:00,
2013-01-15 09:35:00,64.7,62.0,30.14,SE,145,4.0,5.0,91,0.00,,,0.00,Wunderground v.1.15,2013-01-15 14:35:00,
2013-01-15 09:44:00,65.3,62.3,30.15,SSE,147,4.0,6.0,90,0.00,,,0.00,Wunderground v.1.15,2013-01-15 14:44:00,
2013-01-15 09:54:00,65.4,62.4,30.14,SSE,156,5.0,6.0,90,0.00,,,0.00,Wunderground v.1.15,2013-01-15 14:54:00,
2013-01-15 10:00:00,66.0,63.0,30.14,South,185,5.0,7.0,90,0.00,,,0.00,Wunderground v.1.15,2013-01-15 15:00:00,
2013-01-15 10:09:00,67.2,63.5,30.14,SSE,164,6.0,6.0,88,0.00,,,0.00,Wunderground v.1.15,2013-01-15 15:09:00,
2013-01-15 10:15:00,67.5,63.8,30.14,SSE,150,6.0,6.0,88,0.00,,,0.00,Wunderground v.1.15,2013-01-15 15:15:00,
2013-01-15 10:25:00,67.9,63.9,30.14,SSE,162,6.0,7.0,87,0.00,,,0.00,Wunderground v.1.15,2013-01-15 15:25:00,
2013-01-15 10:34:00,68.6,64.2,30.14,SSE,158,7.0,11.0,86,0.00,,,0.01,Wunderground v.1.15,2013-01-15 15:34:00,
2013-01-15 10:44:00,68.7,64.0,30.13,South,171,7.0,8.0,85,0.00,,,0.01,Wunderground v.1.15,2013-01-15 15:44:00,
2013-01-15 10:49:00,69.0,64.0,30.13,South,176,7.0,7.0,84,0.00,,,0.01,Wunderground v.1.15,2013-01-15 15:49:00,
2013-01-15 10:59:00,69.4,64.4,30.12,SSE,157,7.0,7.0,84,0.00,,,0.01,Wunderground v.1.15,2013-01-15 15:59:00,
2013-01-15 11:04:00,69.5,64.5,30.12,SSE,158,8.0,12.0,84,0.00,,,0.01,Wunderground v.1.15,2013-01-15 16:04:00,
2013-01-15 11:14:00,69.8,64.4,30.12,South,184,9.0,10.0,83,0.00,,,0.01,Wunderground v.1.15,2013-01-15 16:14:00,
2013-01-15 11:20:00,69.9,64.5,30.12,SSW,198,9.0,9.0,83,0.00,,,0.01,Wunderground v.1.15,2013-01-15 16:20:00,
2013-01-15 11:29:00,69.7,64.3,30.11,SSE,155,8.0,9.0,83,0.00,,,0.01,Wunderground v.1.15,2013-01-15 16:29:00,
2013-01-15 11:34:00,69.8,64.4,30.11,SSE,154,8.0,9.0,83,0.00,,,0.01,Wunderground v.1.15,2013-01-15 16:34:00,
2013-01-15 11:44:00,69.7,64.3,30.10,South,175,7.0,8.0,83,0.00,,,0.01,Wunderground v.1.15,2013-01-15 16:44:00,
2013-01-15 11:54:00,69.6,64.2,30.10,SE,142,7.0,9.0,83,0.00,,,0.01,Wunderground v.1.15,2013-01-15 16:54:00,
2013-01-15 11:59:00,69.6,64.2,30.09,SE,136,6.0,6.0,83,0.00,,,0.01,Wunderground v.1.15,2013-01-15 16:59:00,
2013-01-15 12:05:00,69.6,64.2,30.09,SE,145,6.0,6.0,83,0.00,,,0.01,Wunderground v.1.15,2013-01-15 17:05:00,
2013-01-15 12:10:00,69.8,64.4,30.09,SSE,152,6.0,7.0,83,0.00,,,0.01,Wunderground v.1.15,2013-01-15 17:10:00,
2013-01-15 12:15:00,70.2,64.8,30.09,SSE,150,6.0,7.0,83,0.00,,,0.01,Wunderground v.1.15,2013-01-15 17:15:00,
2013-01-15 12:25:00,70.3,64.5,30.08,SSE,156,7.0,7.0,82,0.00,,,0.01,Wunderground v.1.15,2013-01-15 17:25:00,
2013-01-15 12:35:00,70.3,64.5,30.08,SSE,148,7.0,9.0,82,0.00,,,0.01,Wunderground v.1.15,2013-01-15 17:35:00,
2013-01-15 12:45:00,69.8,64.4,30.08,SSE,164,8.0,8.0,83,0.00,,,0.01,Wunderground v.1.15,2013-01-15 17:45:00,
2013-01-15 12:50:00,70.2,64.8,30.08,SSE,158,9.0,11.0,83,0.00,,,0.01,Wunderground v.1.15,2013-01-15 17:50:00,
2013-01-15 13:00:00,69.8,64.4,30.08,SSE,148,8.0,8.0,83,0.00,,,0.01,Wunderground v.1.15,2013-01-15 18:00:00,
2013-01-15 13:05:00,69.6,64.2,30.07,SSE,166,7.0,8.0,83,0.00,,,0.01,Wunderground v.1.15,2013-01-15 18:05:00,
2013-01-15 13:15:00,69.3,63.9,30.07,SSE,147,7.0,7.0,83,0.00,,,0.01,Wunderground v.1.15,2013-01-15 18:15:00,
2013-01-15 13:25:00,69.7,64.3,30.07,SSE,162,7.0,8.0,83,0.00,,,0.01,Wunderground v.1.15,2013-01-15 18:25:00,
2013-01-15 13:30:00,69.8,64.4,30.07,SSE,155,8.0,8.0,83,0.00,,,0.01,Wunderground v.1.15,2013-01-15 18:30:00,
2013-01-15 13:40:00,69.7,64.3,30.06,SSE,154,8.0,8.0,83,0.00,,,0.01,Wunderground v.1.15,2013-01-15 18:40:00,
2013-01-15 13:50:00,70.2,64.4,30.06,SE,143,8.0,8.0,82,0.00,,,0.01,Wunderground v.1.15,2013-01-15 18:50:00,
2013-01-15 14:00:00,69.8,64.4,30.06,SSE,152,8.0,8.0,83,0.00,,,0.01,Wunderground v.1.15,2013-01-15 19:00:00,
2013-01-15 14:05:00,70.0,64.6,30.06,SSE,160,7.0,8.0,83,0.00,,,0.01,Wunderground v.1.15,2013-01-15 19:05:00,
2013-01-15 14:10:00,70.3,64.5,30.06,South,188,8.0,10.0,82,0.00,,,0.01,Wunderground v.1.15,2013-01-15 19:10:00,
2013-01-15 14:20:00,70.7,64.9,30.06,SSE,164,8.0,8.0,82,0.00,,,0.01,Wunderground v.1.15,2013-01-15 19:20:00,
2013-01-15 14:25:00,70.7,64.9,30.06,SSE,168,8.0,8.0,82,0.00,,,0.01,Wunderground v.1.15,2013-01-15 19:25:00,
2013-01-15 14:30:00,70.4,64.6,30.06,South,181,7.0,7.0,82,0.00,,,0.01,Wunderground v.1.15,2013-01-15 19:30:00,
2013-01-15 14:40:00,69.5,64.1,30.06,SSE,158,6.0,6.0,83,0.00,,,0.01,Wunderground v.1.15,2013-01-15 19:40:00,
2013-01-15 14:50:00,69.2,64.2,30.06,SSE,160,6.0,7.0,84,0.00,,,0.01,Wunderground v.1.15,2013-01-15 19:50:00,
2013-01-15 14:55:00,69.6,64.5,30.06,SSE,165,6.0,7.0,84,0.00,,,0.01,Wunderground v.1.15,2013-01-15 19:55:00,
2013-01-15 15:00:00,69.9,64.5,30.06,SSE,148,6.0,6.0,83,0.00,,,0.01,Wunderground v.1.15,2013-01-15 20:00:00,
2013-01-15 15:10:00,69.1,63.7,30.06,SE,141,5.0,6.0,83,0.00,,,0.01,Wunderground v.1.15,2013-01-15 20:10:00,
2013-01-15 15:15:00,69.1,64.1,30.06,SE,143,5.0,6.0,84,0.00,,,0.01,Wunderground v.1.15,2013-01-15 20:15:00,
2013-01-15 15:25:00,69.7,64.3,30.06,SE,145,6.0,6.0,83,0.00,,,0.01,Wunderground v.1.15,2013-01-15 20:25:00,
2013-01-15 15:30:00,69.7,64.3,30.06,SSE,151,6.0,6.0,83,0.00,,,0.01,Wunderground v.1.15,2013-01-15 20:30:00,
2013-01-15 15:40:00,68.9,63.9,30.06,SSE,163,6.0,7.0,84,0.00,,,0.01,Wunderground v.1.15,2013-01-15 20:40:00,
2013-01-15 15:50:00,68.8,64.1,30.06,SSE,164,7.0,7.0,85,0.00,,,0.01,Wunderground v.1.15,2013-01-15 20:50:00,
2013-01-15 15:55:00,69.0,64.3,30.06,SSE,150,7.0,8.0,85,0.00,,,0.01,Wunderground v.1.15,2013-01-15 20:55:00,
2013-01-15 16:05:00,69.0,64.0,30.06,SSE,166,7.0,7.0,84,0.00,,,0.01,Wunderground v.1.15,2013-01-15 21:05:00,
2013-01-15 16:15:00,68.8,64.1,30.06,South,177,5.0,6.0,85,0.00,,,0.01,Wunderground v.1.15,2013-01-15 21:15:00,
2013-01-15 16:20:00,68.6,63.9,30.06,SSE,165,5.0,5.0,85,0.00,,,0.01,Wunderground v.1.15,2013-01-15 21:20:00,
2013-01-15 16:30:00,68.6,64.2,30.07,South,191,7.0,7.0,86,0.00,,,0.01,Wunderground v.1.15,2013-01-15 21:30:00,
2013-01-15 16:35:00,68.6,64.2,30.06,South,171,8.0,9.0,86,0.00,,,0.01,Wunderground v.1.15,2013-01-15 21:35:00,
2013-01-15 16:45:00,67.7,63.7,30.07,SSW,196,7.0,10.0,87,0.00,,,0.01,Wunderground v.1.15,2013-01-15 21:45:00,
2013-01-15 16:50:00,67.4,63.7,30.07,SE,135,6.0,6.0,88,0.00,,,0.01,Wunderground v.1.15,2013-01-15 21:50:00,
2013-01-15 17:00:00,66.9,63.6,30.06,SSE,151,5.0,5.0,89,0.00,,,0.01,Wunderground v.1.15,2013-01-15 22:00:00,
2013-01-15 17:05:00,66.7,63.4,30.07,SSE,149,5.0,5.0,89,0.00,,,0.01,Wunderground v.1.15,2013-01-15 22:05:00,
2013-01-15 17:15:00,66.1,62.8,30.07,SSE,165,3.0,4.0,89,0.00,,,0.01,Wunderground v.1.15,2013-01-15 22:15:00,
2013-01-15 17:25:00,65.5,62.8,30.07,SSE,160,4.0,4.0,91,0.00,,,0.01,Wunderground v.1.15,2013-01-15 22:25:00,
2013-01-15 17:35:00,64.9,62.5,30.07,SSE,156,5.0,5.0,92,0.00,,,0.01,Wunderground v.1.15,2013-01-15 22:35:00,
2013-01-15 17:40:00,64.7,62.3,30.07,SE,145,4.0,4.0,92,0.00,,,0.01,Wunderground v.1.15,2013-01-15 22:40:00,
2013-01-15 17:45:00,64.6,62.5,30.07,SSE,158,5.0,5.0,93,0.00,,,0.01,Wunderground v.1.15,2013-01-15 22:45:00,
2013-01-15 17:55:00,64.5,62.4,30.07,SSE,157,4.0,4.0,93,0.00,,,0.01,Wunderground v.1.15,2013-01-15 22:55:00,
2013-01-15 18:05:00,64.4,62.3,30.07,SSE,149,3.0,3.0,93,0.00,,,0.01,Wunderground v.1.15,2013-01-15 23:05:00,
2013-01-15 18:10:00,64.0,61.9,30.07,SSE,150,3.0,3.0,93,0.00,,,0.01,Wunderground v.1.15,2013-01-15 23:10:00,
2013-01-15 18:20:00,63.9,62.1,30.08,SSE,153,4.0,4.0,94,0.00,,,0.01,Wunderground v.1.15,2013-01-15 23:20:00,
2013-01-15 18:30:00,63.7,61.9,30.08,SSE,147,4.0,4.0,94,0.00,,,0.01,Wunderground v.1.15,2013-01-15 23:30:00,
2013-01-15 18:40:00,63.4,61.3,30.08,SE,133,3.0,3.0,93,0.00,,,0.01,Wunderground v.1.15,2013-01-15 23:40:00,
2013-01-15 18:45:00,63.2,61.4,30.08,ESE,120,2.0,3.0,94,0.00,,,0.01,Wunderground v.1.15,2013-01-15 23:45:00,
2013-01-15 18:50:00,63.0,61.2,30.08,ESE,121,2.0,2.0,94,0.00,,,0.01,Wunderground v.1.15,2013-01-15 23:50:00,
2013-01-15 19:00:00,62.7,61.2,30.08,SE,143,1.0,1.0,95,0.00,,,0.01,Wunderground v.1.15,2013-01-16 00:00:00,
2013-01-15 19:10:00,62.6,61.1,30.08,SE,143,0.0,0.0,95,0.00,,,0.01,Wunderground v.1.15,2013-01-16 00:10:00,
2013-01-15 19:15:00,62.5,61.0,30.08,SE,143,0.0,0.0,95,0.00,,,0.01,Wunderground v.1.15,2013-01-16 00:15:00,
2013-01-15 19:20:00,62.3,60.8,30.08,SE,143,0.0,0.0,95,0.00,,,0.01,Wunderground v.1.15,2013-01-16 00:20:00,
2013-01-15 19:30:00,61.9,60.5,30.08,SE,143,0.0,1.0,95,0.00,,,0.01,Wunderground v.1.15,2013-01-16 00:30:00,
2013-01-15 19:35:00,61.8,60.4,30.08,ESE,120,0.0,2.0,95,0.00,,,0.01,Wunderground v.1.15,2013-01-16 00:35:00,
2013-01-15 19:40:00,62.0,60.8,30.08,ESE,120,1.0,1.0,96,0.00,,,0.01,Wunderground v.1.15,2013-01-16 00:40:00,
2013-01-15 19:50:00,61.7,60.5,30.08,ESE,110,1.0,2.0,96,0.00,,,0.01,Wunderground v.1.15,2013-01-16 00:50:00,
2013-01-15 20:00:00,61.5,60.3,30.08,SE,141,3.0,3.0,96,0.00,,,0.01,Wunderground v.1.15,2013-01-16 01:00:00,
2013-01-15 20:05:00,61.3,60.2,30.08,SE,134,3.0,4.0,96,0.00,,,0.01,Wunderground v.1.15,2013-01-16 01:05:00,
2013-01-15 20:10:00,61.3,60.2,30.08,SE,132,2.0,3.0,96,0.00,,,0.01,Wunderground v.1.15,2013-01-16 01:10:00,
2013-01-15 20:20:00,61.3,60.2,30.08,SSE,154,1.0,2.0,96,0.00,,,0.01,Wunderground v.1.15,2013-01-16 01:20:00,
2013-01-15 20:25:00,61.4,60.2,30.07,SSE,154,1.0,2.0,96,0.00,,,0.01,Wunderground v.1.15,2013-01-16 01:25:00,
2013-01-15 20:35:00,61.4,60.2,30.07,SSE,154,0.0,1.0,96,0.00,,,0.01,Wunderground v.1.15,2013-01-16 01:35:00,
2013-01-15 20:40:00,61.3,60.2,30.07,SSE,154,0.0,0.0,96,0.00,,,0.01,Wunderground v.1.15,2013-01-16 01:40:00,
2013-01-15 20:45:00,61.4,60.2,30.07,SE,138,0.0,0.0,96,0.00,,,0.01,Wunderground v.1.15,2013-01-16 01:45:00,
2013-01-15 20:55:00,61.5,60.3,30.06,SSE,158,0.0,1.0,96,0.00,,,0.01,Wunderground v.1.15,2013-01-16 01:55:00,
2013-01-15 21:00:00,61.3,60.2,30.06,SSE,147,0.0,1.0,96,0.00,,,0.01,Wunderground v.1.15,2013-01-16 02:00:00,
2013-01-15 21:10:00,61.8,60.9,30.06,ESE,110,2.0,2.0,97,0.00,,,0.01,Wunderground v.1.15,2013-01-16 02:10:00,
2013-01-15 21:20:00,61.6,60.4,30.06,ESE,112,0.0,0.0,96,0.00,,,0.01,Wunderground v.1.15,2013-01-16 02:20:00,
2013-01-15 21:25:00,61.5,60.3,30.06,ESE,112,0.0,0.0,96,0.00,,,0.01,Wunderground v.1.15,2013-01-16 02:25:00,
2013-01-15 21:35:00,61.7,60.8,30.05,ESE,112,0.0,0.0,97,0.00,,,0.01,Wunderground v.1.15,2013-01-16 02:35:00,
2013-01-15 21:45:00,61.6,60.7,30.06,SE,130,0.0,1.0,97,0.00,,,0.01,Wunderground v.1.15,2013-01-16 02:45:00,
2013-01-15 21:50:00,61.8,60.9,30.06,SE,131,1.0,2.0,97,0.00,,,0.01,Wunderground v.1.15,2013-01-16 02:50:00,
2013-01-15 22:00:00,62.5,61.6,30.05,SE,129,2.0,2.0,97,0.00,,,0.01,Wunderground v.1.15,2013-01-16 03:00:00,
2013-01-15 22:05:00,62.5,61.6,30.05,SE,131,2.0,3.0,97,0.00,,,0.01,Wunderground v.1.15,2013-01-16 03:05:00,
2013-01-15 22:15:00,62.7,61.8,30.05,SE,127,3.0,4.0,97,0.00,,,0.01,Wunderground v.1.15,2013-01-16 03:15:00,
2013-01-15 22:20:00,62.4,61.5,30.05,SE,125,3.0,3.0,97,0.00,,,0.01,Wunderground v.1.15,2013-01-16 03:20:00,
2013-01-15 22:30:00,62.2,61.3,30.04,SE,144,4.0,4.0,97,0.00,,,0.01,Wunderground v.1.15,2013-01-16 03:30:00,
2013-01-15 22:35:00,62.1,61.2,30.04,SE,142,4.0,5.0,97,0.00,,,0.01,Wunderground v.1.15,2013-01-16 03:35:00,
2013-01-15 22:45:00,62.1,61.5,30.03,SE,135,5.0,6.0,98,0.00,,,0.01,Wunderground v.1.15,2013-01-16 03:45:00,
2013-01-15 22:55:00,62.1,61.5,30.03,SE,135,5.0,7.0,98,0.00,,,0.01,Wunderground v.1.15,2013-01-16 03:55:00,
2013-01-15 23:00:00,62.0,61.1,30.03,SE,144,4.0,4.0,97,0.00,,,0.01,Wunderground v.1.15,2013-01-16 04:00:00,
2013-01-15 23:10:00,62.3,61.7,30.03,SE,130,4.0,4.0,98,0.00,,,0.01,Wunderground v.1.15,2013-01-16 04:10:00,
2013-01-15 23:20:00,62.6,62.0,30.02,SE,129,5.0,5.0,98,0.00,,,0.01,Wunderground v.1.15,2013-01-16 04:20:00,
2013-01-15 23:25:00,62.8,62.2,30.02,SE,138,5.0,5.0,98,0.00,,,0.01,Wunderground v.1.15,2013-01-16 04:25:00,
2013-01-15 23:35:00,62.4,61.5,30.02,ESE,118,5.0,8.0,97,0.00,,,0.01,Wunderground v.1.15,2013-01-16 04:35:00,
2013-01-15 23:40:00,62.3,61.7,30.02,ESE,118,5.0,7.0,98,0.00,,,0.01,Wunderground v.1.15,2013-01-16 04:40:00,
2013-01-15 23:50:00,61.7,61.1,30.01,SE,143,4.0,5.0,98,0.00,,,0.01,Wunderground v.1.15,2013-01-16 04:50:00,